Time,TemperatureF,DewpointF,PressureIn,WindDirection,WindDirectionDegrees,WindSpeedMPH,WindSpeedGustMPH,Humidity,HourlyPrecipIn,Conditions,Clouds,dailyrainin,SoftwareType,DateUTC
2013-05-19 00:01:00,59.0,56.0,29.94,ESE,122,0.0,2.0,91,0.00,,,0.00,,2013-05-19 07:01:00,
2013-05-19 00:11:00,59.0,56.0,29.94,ESE,122,0.0,2.0,91,0.00,,,0.00,,2013-05-19 07:11:00,
2013-05-19 00:21:00,58.0,55.0,29.94,ESE,122,0.0,2.0,91,0.00,,,0.00,,2013-05-19 07:21:00,
2013-05-19 00:32:00,58.0,55.0,29.95,ESE,120,0.0,2.0,91,0.00,,,0.00,,2013-05-19 07:32:00,
2013-05-19 00:41:00,58.0,55.0,29.95,ESE,120,0.0,2.0,91,0.00,,,0.00,,2013-05-19 07:41:00,
2013-05-19 00:52:00,58.0,56.0,29.94,ESE,120,0.0,3.0,92,0.00,,,0.00,,2013-05-19 07:52:00,
2013-05-19 01:01:00,58.0,56.0,29.95,ESE,121,0.0,3.0,92,0.00,,,0.00,,2013-05-19 08:01:00,
2013-05-19 01:11:00,58.0,56.0,29.95,ESE,121,0.0,3.0,92,0.00,,,0.00,,2013-05-19 08:11:00,
2013-05-19 01:21:00,58.0,56.0,29.94,ESE,121,1.0,2.0,92,0.00,,,0.00,,2013-05-19 08:21:00,
2013-05-19 01:31:00,58.0,56.0,29.94,ESE,121,0.0,2.0,93,0.00,,,0.00,,2013-05-19 08:31:00,
2013-05-19 01:41:00,58.0,56.0,29.94,ESE,121,0.0,2.0,93,0.00,,,0.00,,2013-05-19 08:41:00,
2013-05-19 01:52:00,58.0,56.0,29.93,ESE,121,0.0,3.0,93,0.00,,,0.00,,2013-05-19 08:52:00,
2013-05-19 02:02:00,57.0,55.0,29.94,ESE,121,1.0,3.0,93,0.00,,,0.00,,2013-05-19 09:02:00,
2013-05-19 02:11:00,57.0,55.0,29.94,ESE,121,1.0,3.0,93,0.00,,,0.00,,2013-05-19 09:11:00,
2013-05-19 02:21:00,57.0,55.0,29.94,ESE,121,0.0,2.0,94,0.00,,,0.00,,2013-05-19 09:21:00,
2013-05-19 02:32:00,57.0,55.0,29.93,ESE,114,1.0,4.0,94,0.00,,,0.00,,2013-05-19 09:32:00,
2013-05-19 02:42:00,57.0,55.0,29.93,ESE,114,1.0,4.0,94,0.00,,,0.00,,2013-05-19 09:42:00,
2013-05-19 02:53:00,57.0,55.0,29.93,SE,124,1.0,3.0,94,0.00,,,0.00,,2013-05-19 09:53:00,
2013-05-19 03:02:00,56.0,54.0,29.93,SE,125,0.0,2.0,94,0.00,,,0.00,,2013-05-19 10:02:00,
2013-05-19 03:12:00,56.0,54.0,29.93,SE,125,0.0,2.0,94,0.00,,,0.00,,2013-05-19 10:12:00,
2013-05-19 03:22:00,56.0,54.0,29.93,SE,125,0.0,1.0,94,0.00,,,0.00,,2013-05-19 10:22:00,
2013-05-19 03:32:00,56.0,55.0,29.93,East,101,1.0,5.0,95,0.00,,,0.00,,2013-05-19 10:32:00,
2013-05-19 03:42:00,56.0,55.0,29.93,East,101,1.0,5.0,95,0.00,,,0.00,,2013-05-19 10:42:00,
2013-05-19 03:52:00,56.0,54.0,29.94,East,89,1.0,5.0,94,0.00,,,0.00,,2013-05-19 10:52:00,
2013-05-19 04:02:00,56.0,54.0,29.93,East,95,1.0,5.0,94,0.00,,,0.00,,2013-05-19 11:02:00,
2013-05-19 04:11:00,56.0,54.0,29.93,East,95,1.0,5.0,94,0.00,,,0.00,,2013-05-19 11:11:00,
2013-05-19 04:21:00,56.0,54.0,29.94,East,84,1.0,6.0,94,0.00,,,0.00,,2013-05-19 11:21:00,
2013-05-19 04:32:00,57.0,55.0,29.93,East,98,2.0,5.0,94,0.00,,,0.00,,2013-05-19 11:32:00,
2013-05-19 04:42:00,57.0,55.0,29.93,East,98,2.0,5.0,94,0.00,,,0.00,,2013-05-19 11:42:00,
2013-05-19 04:52:00,57.0,55.0,29.93,East,93,1.0,6.0,94,0.00,,,0.00,,2013-05-19 11:52:00,
2013-05-19 05:01:00,57.0,55.0,29.93,East,96,2.0,5.0,93,0.00,,,0.00,,2013-05-19 12:01:00,
2013-05-19 05:11:00,57.0,55.0,29.93,East,96,2.0,5.0,93,0.00,,,0.00,,2013-05-19 12:11:00,
2013-05-19 05:21:00,57.0,55.0,29.93,East,96,0.0,5.0,92,0.00,,,0.00,,2013-05-19 12:21:00,
2013-05-19 05:31:00,57.0,54.0,29.93,East,95,2.0,5.0,91,0.00,,,0.00,,2013-05-19 12:31:00,
2013-05-19 05:41:00,57.0,54.0,29.93,East,95,2.0,5.0,91,0.00,,,0.00,,2013-05-19 12:41:00,
2013-05-19 05:52:00,56.0,53.0,29.93,East,97,0.0,3.0,91,0.00,,,0.00,,2013-05-19 12:52:00,
2013-05-19 06:01:00,56.0,53.0,29.93,East,97,0.0,1.0,91,0.00,,,0.00,,2013-05-19 13:01:00,
2013-05-19 06:11:00,56.0,53.0,29.93,East,97,0.0,1.0,91,0.00,,,0.00,,2013-05-19 13:11:00,
2013-05-19 06:21:00,56.0,54.0,29.93,East,97,0.0,3.0,92,0.00,,,0.00,,2013-05-19 13:21:00,
2013-05-19 06:31:00,57.0,54.0,29.93,East,97,0.0,2.0,91,0.00,,,0.00,,2013-05-19 13:31:00,
2013-05-19 06:42:00,57.0,54.0,29.93,East,97,0.0,2.0,91,0.00,,,0.00,,2013-05-19 13:42:00,
2013-05-19 06:52:00,57.0,54.0,29.93,East,97,0.0,3.0,91,0.00,,,0.00,,2013-05-19 13:52:00,
2013-05-19 07:02:00,58.0,55.0,29.93,East,93,1.0,5.0,90,0.00,,,0.00,,2013-05-19 14:02:00,
2013-05-19 07:11:00,58.0,55.0,29.93,East,93,1.0,5.0,90,0.00,,,0.00,,2013-05-19 14:11:00,
2013-05-19 07:21:00,58.0,55.0,29.93,East,95,1.0,5.0,89,0.00,,,0.00,,2013-05-19 14:21:00,
2013-05-19 07:31:00,59.0,55.0,29.94,ESE,110,1.0,5.0,88,0.00,,,0.00,,2013-05-19 14:31:00,
2013-05-19 07:41:00,59.0,55.0,29.94,ESE,110,1.0,5.0,88,0.00,,,0.00,,2013-05-19 14:41:00,
2013-05-19 07:52:00,59.0,55.0,29.94,ESE,110,1.0,5.0,88,0.00,,,0.00,,2013-05-19 14:52:00,
2013-05-19 08:01:00,60.0,56.0,29.94,SE,128,2.0,7.0,86,0.00,,,0.00,,2013-05-19 15:01:00,
2013-05-19 08:11:00,60.0,56.0,29.94,SE,128,2.0,7.0,86,0.00,,,0.00,,2013-05-19 15:11:00,
2013-05-19 08:21:00,59.0,55.0,29.94,East,98,2.0,6.0,86,0.00,,,0.00,,2013-05-19 15:21:00,
2013-05-19 08:33:00,61.0,56.0,29.95,East,97,1.0,2.0,85,0.00,,,0.00,,2013-05-19 15:33:00,
2013-05-19 08:43:00,61.0,56.0,29.95,East,97,1.0,2.0,85,0.00,,,0.00,,2013-05-19 15:43:00,
2013-05-19 08:53:00,63.0,56.0,29.94,NW,325,1.0,4.0,79,0.00,,,0.00,,2013-05-19 15:53:00,
2013-05-19 09:03:00,63.0,56.0,29.94,South,178,2.0,4.0,77,0.00,,,0.00,,2013-05-19 16:03:00,
2013-05-19 09:12:00,63.0,56.0,29.94,South,178,2.0,4.0,77,0.00,,,0.00,,2013-05-19 16:12:00,
2013-05-19 09:23:00,65.0,58.0,29.94,NE,43,0.0,3.0,77,0.00,,,0.00,,2013-05-19 16:23:00,
2013-05-19 09:32:00,68.0,58.0,29.93,NW,306,2.0,7.0,70,0.00,,,0.00,,2013-05-19 16:32:00,
2013-05-19 09:42:00,68.0,58.0,29.93,NW,306,2.0,7.0,70,0.00,,,0.00,,2013-05-19 16:42:00,
2013-05-19 09:52:00,67.0,57.0,29.93,South,184,5.0,7.0,70,0.00,,,0.00,,2013-05-19 16:52:00,
2013-05-19 10:01:00,67.0,57.0,29.93,West,260,4.0,9.0,70,0.00,,,0.00,,2013-05-19 17:01:00,
2013-05-19 10:12:00,67.0,57.0,29.93,West,260,4.0,9.0,70,0.00,,,0.00,,2013-05-19 17:12:00,
2013-05-19 10:22:00,68.0,57.0,29.93,South,188,4.0,8.0,69,0.00,,,0.00,,2013-05-19 17:22:00,
2013-05-19 10:32:00,67.0,57.0,29.92,SSW,209,3.0,8.0,71,0.00,,,0.00,,2013-05-19 17:32:00,
2013-05-19 10:42:00,67.0,57.0,29.92,SSW,209,3.0,8.0,71,0.00,,,0.00,,2013-05-19 17:42:00,
2013-05-19 10:52:00,69.0,58.0,29.91,SW,216,1.0,7.0,69,0.00,,,0.00,,2013-05-19 17:52:00,
2013-05-19 11:02:00,70.0,58.0,29.91,West,277,4.0,10.0,66,0.00,,,0.00,,2013-05-19 18:02:00,
2013-05-19 11:12:00,70.0,58.0,29.91,West,277,4.0,10.0,66,0.00,,,0.00,,2013-05-19 18:12:00,
2013-05-19 11:21:00,70.0,58.0,29.91,WSW,238,6.0,12.0,65,0.00,,,0.00,,2013-05-19 18:21:00,
2013-05-19 11:32:00,69.0,58.0,29.91,WSW,238,4.0,11.0,68,0.00,,,0.00,,2013-05-19 18:32:00,
2013-05-19 11:42:00,69.0,58.0,29.91,WSW,238,4.0,11.0,68,0.00,,,0.00,,2013-05-19 18:42:00,
2013-05-19 11:53:00,69.0,57.0,29.91,SSE,160,7.0,16.0,66,0.00,,,0.00,,2013-05-19 18:53:00,
2013-05-19 12:01:00,68.0,57.0,29.91,SW,236,6.0,14.0,69,0.00,,,0.00,,2013-05-19 19:01:00,
2013-05-19 12:11:00,68.0,57.0,29.91,SW,236,6.0,14.0,69,0.00,,,0.00,,2013-05-19 19:11:00,
2013-05-19 12:21:00,69.0,57.0,29.91,South,180,8.0,14.0,66,0.00,,,0.00,,2013-05-19 19:21:00,
2013-05-19 12:31:00,68.0,57.0,29.91,WSW,243,7.0,15.0,69,0.00,,,0.00,,2013-05-19 19:31:00,
2013-05-19 12:42:00,68.0,57.0,29.91,WSW,243,7.0,15.0,69,0.00,,,0.00,,2013-05-19 19:42:00,
2013-05-19 12:52:00,68.0,58.0,29.90,SSW,211,5.0,11.0,71,0.00,,,0.00,,2013-05-19 19:52:00,
2013-05-19 13:02:00,69.0,58.0,29.90,South,189,7.0,16.0,69,0.00,,,0.00,,2013-05-19 20:02:00,
2013-05-19 13:11:00,69.0,58.0,29.90,South,189,7.0,16.0,69,0.00,,,0.00,,2013-05-19 20:11:00,
2013-05-19 13:21:00,69.0,58.0,29.90,SSW,194,7.0,14.0,68,0.00,,,0.00,,2013-05-19 20:21:00,
2013-05-19 13:31:00,69.0,57.0,29.89,South,174,7.0,13.0,66,0.00,,,0.00,,2013-05-19 20:31:00,
2013-05-19 13:41:00,69.0,57.0,29.89,South,174,7.0,13.0,66,0.00,,,0.00,,2013-05-19 20:41:00,
2013-05-19 13:52:00,69.0,58.0,29.89,SW,233,4.0,11.0,68,0.00,,,0.00,,2013-05-19 20:52:00,
2013-05-19 14:02:00,68.0,58.0,29.89,SW,214,7.0,14.0,70,0.00,,,0.00,,2013-05-19 21:02:00,
2013-05-19 14:11:00,68.0,58.0,29.89,SW,214,7.0,14.0,70,0.00,,,0.00,,2013-05-19 21:11:00,
2013-05-19 14:22:00,70.0,59.0,29.88,West,263,6.0,14.0,67,0.00,,,0.00,,2013-05-19 21:22:00,
2013-05-19 14:32:00,70.0,58.0,29.88,WSW,246,5.0,10.0,66,0.00,,,0.00,,2013-05-19 21:32:00,
2013-05-19 14:43:00,70.0,58.0,29.88,WSW,246,5.0,10.0,66,0.00,,,0.00,,2013-05-19 21:43:00,
2013-05-19 14:53:00,71.0,58.0,29.88,WSW,257,4.0,12.0,64,0.00,,,0.00,,2013-05-19 21:53:00,
2013-05-19 15:02:00,69.0,59.0,29.88,SSW,205,3.0,10.0,70,0.00,,,0.00,,2013-05-19 22:02:00,
2013-05-19 15:12:00,69.0,59.0,29.88,SSW,205,3.0,10.0,70,0.00,,,0.00,,2013-05-19 22:12:00,
2013-05-19 15:23:00,69.0,59.0,29.88,SSW,205,3.0,10.0,70,0.00,,,0.00,,2013-05-19 22:23:00,
2013-05-19 15:33:00,70.0,59.0,29.87,WSW,240,4.0,10.0,69,0.00,,,0.00,,2013-05-19 22:33:00,
2013-05-19 15:42:00,70.0,59.0,29.87,WSW,240,4.0,10.0,69,0.00,,,0.00,,2013-05-19 22:42:00,
2013-05-19 15:53:00,70.0,58.0,29.87,WSW,244,4.0,9.0,66,0.00,,,0.00,,2013-05-19 22:53:00,
2013-05-19 16:02:00,69.0,58.0,29.86,SW,230,5.0,10.0,68,0.00,,,0.00,,2013-05-19 23:02:00,
2013-05-19 16:11:00,69.0,58.0,29.86,SW,230,5.0,10.0,68,0.00,,,0.00,,2013-05-19 23:11:00,
2013-05-19 16:21:00,70.0,58.0,29.86,WSW,238,5.0,10.0,65,0.00,,,0.00,,2013-05-19 23:21:00,
2013-05-19 16:31:00,69.0,58.0,29.86,SW,230,4.0,10.0,67,0.00,,,0.00,,2013-05-19 23:31:00,
2013-05-19 16:42:00,69.0,58.0,29.86,SW,230,4.0,10.0,67,0.00,,,0.00,,2013-05-19 23:42:00,
2013-05-19 16:52:00,70.0,59.0,29.86,WSW,254,6.0,9.0,67,0.00,,,0.00,,2013-05-19 23:52:00,
2013-05-19 17:01:00,68.0,57.0,29.87,West,263,5.0,10.0,67,0.00,,,0.00,,2013-05-20 00:01:00,
2013-05-19 17:11:00,68.0,57.0,29.87,West,263,5.0,10.0,67,0.00,,,0.00,,2013-05-20 00:11:00,
2013-05-19 17:21:00,67.0,57.0,29.86,WNW,292,4.0,8.0,71,0.00,,,0.00,,2013-05-20 00:21:00,
2013-05-19 17:31:00,66.0,57.0,29.85,WSW,243,3.0,7.0,73,0.00,,,0.00,,2013-05-20 00:31:00,
2013-05-19 17:41:00,66.0,57.0,29.85,WSW,243,3.0,7.0,73,0.00,,,0.00,,2013-05-20 00:41:00,
2013-05-19 17:52:00,65.0,56.0,29.85,SW,217,5.0,8.0,74,0.00,,,0.00,,2013-05-20 00:52:00,
2013-05-19 18:01:00,65.0,56.0,29.85,SSW,201,3.0,7.0,74,0.00,,,0.00,,2013-05-20 01:01:00,
2013-05-19 18:11:00,65.0,56.0,29.85,SSW,201,3.0,7.0,74,0.00,,,0.00,,2013-05-20 01:11:00,
2013-05-19 18:21:00,65.0,56.0,29.85,South,185,3.0,6.0,74,0.00,,,0.00,,2013-05-20 01:21:00,
2013-05-19 18:31:00,65.0,56.0,29.85,WSW,238,2.0,5.0,74,0.00,,,0.00,,2013-05-20 01:31:00,
2013-05-19 18:42:00,65.0,56.0,29.85,WSW,238,2.0,5.0,74,0.00,,,0.00,,2013-05-20 01:42:00,
2013-05-19 18:52:00,65.0,57.0,29.85,South,187,3.0,6.0,76,0.00,,,0.00,,2013-05-20 01:52:00,
2013-05-19 19:01:00,64.0,57.0,29.85,SW,216,3.0,6.0,77,0.00,,,0.00,,2013-05-20 02:01:00,
2013-05-19 19:11:00,64.0,57.0,29.85,SW,216,3.0,6.0,77,0.00,,,0.00,,2013-05-20 02:11:00,
2013-05-19 19:21:00,64.0,57.0,29.85,South,186,2.0,6.0,79,0.00,,,0.00,,2013-05-20 02:21:00,
2013-05-19 19:31:00,63.0,57.0,29.85,SSW,199,3.0,6.0,81,0.00,,,0.00,,2013-05-20 02:31:00,
2013-05-19 19:42:00,63.0,57.0,29.85,SSW,199,3.0,6.0,81,0.00,,,0.00,,2013-05-20 02:42:00,
2013-05-19 19:52:00,62.0,56.0,29.85,South,186,1.0,5.0,82,0.00,,,0.00,,2013-05-20 02:52:00,
2013-05-19 20:01:00,62.0,57.0,29.86,South,190,1.0,4.0,83,0.00,,,0.00,,2013-05-20 03:01:00,
2013-05-19 20:11:00,62.0,57.0,29.86,South,190,1.0,4.0,83,0.00,,,0.00,,2013-05-20 03:11:00,
2013-05-19 20:21:00,62.0,57.0,29.86,SSW,192,1.0,4.0,84,0.00,,,0.00,,2013-05-20 03:21:00,
2013-05-19 20:33:00,61.0,56.0,29.86,SSW,192,0.0,2.0,85,0.00,,,0.00,,2013-05-20 03:33:00,
2013-05-19 20:42:00,61.0,56.0,29.86,SSW,192,0.0,2.0,85,0.00,,,0.00,,2013-05-20 03:42:00,
2013-05-19 20:52:00,61.0,56.0,29.86,SSW,192,0.0,2.0,85,0.00,,,0.00,,2013-05-20 03:52:00,
2013-05-19 21:02:00,61.0,56.0,29.86,SSW,192,0.0,2.0,85,0.00,,,0.00,,2013-05-20 04:02:00,
2013-05-19 21:12:00,61.0,56.0,29.86,SSW,192,0.0,2.0,85,0.00,,,0.00,,2013-05-20 04:12:00,
2013-05-19 21:22:00,61.0,56.0,29.86,SSW,192,0.0,2.0,85,0.00,,,0.00,,2013-05-20 04:22:00,
2013-05-19 21:33:00,61.0,57.0,29.87,SSW,192,0.0,2.0,87,0.00,,,0.00,,2013-05-20 04:33:00,
2013-05-19 21:42:00,61.0,57.0,29.87,SSW,192,0.0,2.0,87,0.00,,,0.00,,2013-05-20 04:42:00,
2013-05-19 21:52:00,60.0,56.0,29.87,SSW,192,0.0,1.0,87,0.00,,,0.00,,2013-05-20 04:52:00,
2013-05-19 22:02:00,61.0,56.0,29.88,SSW,192,0.0,1.0,85,0.00,,,0.00,,2013-05-20 05:02:00,
2013-05-19 22:11:00,61.0,56.0,29.88,SSW,192,0.0,1.0,85,0.00,,,0.00,,2013-05-20 05:11:00,
2013-05-19 22:21:00,61.0,56.0,29.88,SSW,192,0.0,1.0,85,0.00,,,0.00,,2013-05-20 05:21:00,
2013-05-19 22:32:00,60.0,56.0,29.87,SSW,192,0.0,1.0,87,0.00,,,0.00,,2013-05-20 05:32:00,
2013-05-19 22:42:00,60.0,56.0,29.87,SSW,192,0.0,1.0,87,0.00,,,0.00,,2013-05-20 05:42:00,
2013-05-19 22:52:00,60.0,56.0,29.88,SSW,192,0.0,1.0,86,0.00,,,0.00,,2013-05-20 05:52:00,
2013-05-19 23:01:00,60.0,56.0,29.88,SSW,192,0.0,0.0,86,0.00,,,0.00,,2013-05-20 06:01:00,
2013-05-19 23:11:00,60.0,56.0,29.88,SSW,192,0.0,0.0,86,0.00,,,0.00,,2013-05-20 06:11:00,
2013-05-19 23:21:00,60.0,56.0,29.88,SSW,192,0.0,0.0,87,0.00,,,0.00,,2013-05-20 06:21:00,
2013-05-19 23:31:00,59.0,55.0,29.88,SSW,192,0.0,1.0,87,0.00,,,0.00,,2013-05-20 06:31:00,
2013-05-19 23:41:00,59.0,55.0,29.88,SSW,192,0.0,1.0,87,0.00,,,0.00,,2013-05-20 06:41:00,
2013-05-19 23:52:00,59.0,55.0,29.88,SSW,192,0.0,1.0,87,0.00,,,0.00,,2013-05-20 06:52:00,